createdAt,value
2023-05-25T00:01:44.038Z,96.48
2023-05-25T00:04:17.608Z,96.73
2023-05-25T00:06:47.709Z,96.52
2023-05-25T00:09:16.506Z,96.20
2023-05-25T00:11:44.886Z,96.93
2023-05-25T00:14:13.216Z,96.47
2023-05-25T00:16:41.606Z,98.00
2023-05-25T00:19:10.878Z,100.00
2023-05-25T00:21:39.361Z,100.00
2023-05-25T00:24:09.743Z,98.56
2023-05-25T00:26:38.181Z,97.29
2023-05-25T00:29:07.336Z,96.48
2023-05-25T00:31:37.046Z,95.59
2023-05-25T00:34:05.498Z,96.13
2023-05-25T00:36:34.738Z,96.30
2023-05-25T00:39:03.078Z,95.66
2023-05-25T00:41:33.511Z,94.75
2023-05-25T00:44:01.809Z,95.35
2023-05-25T00:46:30.988Z,95.76
2023-05-25T00:48:59.311Z,95.82
2023-05-25T00:51:28.509Z,94.77
2023-05-25T00:53:56.837Z,96.53
2023-05-25T00:56:30.264Z,99.27
2023-05-25T00:59:06.372Z,98.31
2023-05-25T01:01:40.416Z,98.87
2023-05-25T01:04:10.890Z,98.96
2023-05-25T01:06:43.718Z,100.00
2023-05-25T01:09:15.470Z,100.00
2023-05-25T01:11:45.691Z,100.00
2023-05-25T01:14:19.693Z,100.00
2023-05-25T01:16:48.836Z,99.67
2023-05-25T01:19:17.296Z,100.00
2023-05-25T01:21:51.655Z,100.00
2023-05-25T01:24:31.018Z,100.00
2023-05-25T01:27:22.546Z,100.00
2023-05-25T01:29:50.882Z,100.00
2023-05-25T01:32:19.841Z,100.00
2023-05-25T01:34:49.895Z,100.00
2023-05-25T01:37:23.457Z,100.00
2023-05-25T01:39:51.935Z,100.00
2023-05-25T01:42:20.246Z,100.00
2023-05-25T01:44:48.610Z,100.00
2023-05-25T01:47:23.730Z,100.00
2023-05-25T01:50:01.350Z,100.00
2023-05-25T01:52:37.535Z,100.00
2023-05-25T01:55:09.407Z,100.00
2023-05-25T01:57:40.089Z,100.00
2023-05-25T02:00:11.253Z,100.00
2023-05-25T02:02:42.025Z,100.00
2023-05-25T02:05:11.336Z,100.00
2023-05-25T02:07:41.018Z,100.00
2023-05-25T02:10:10.094Z,100.00
2023-05-25T02:12:38.364Z,100.00
2023-05-25T02:15:07.498Z,100.00
2023-05-25T02:17:37.458Z,100.00
2023-05-25T02:20:07.028Z,100.00
2023-05-25T02:22:35.456Z,100.00
2023-05-25T02:25:05.868Z,100.00
2023-05-25T02:27:34.405Z,100.00
2023-05-25T02:30:02.789Z,100.00
2023-05-25T02:32:31.619Z,100.00
2023-05-25T02:34:59.974Z,100.00
2023-05-25T02:37:28.336Z,100.00
2023-05-25T02:39:56.875Z,100.00
2023-05-25T02:42:26.637Z,100.00
2023-05-25T02:44:54.932Z,99.61
2023-05-25T02:47:23.363Z,100.00
2023-05-25T02:49:52.397Z,100.00
2023-05-25T02:52:21.388Z,100.00
2023-05-25T02:54:49.689Z,100.00
2023-05-25T02:57:17.989Z,100.00
2023-05-25T02:59:47.694Z,100.00
2023-05-25T03:02:18.738Z,100.00
2023-05-25T03:04:47.138Z,100.00
2023-05-25T03:07:15.706Z,100.00
2023-05-25T03:09:44.022Z,100.00
2023-05-25T03:12:12.269Z,100.00
2023-05-25T03:14:40.627Z,100.00
2023-05-25T03:17:10.532Z,100.00
2023-05-25T03:19:38.778Z,100.00
2023-05-25T03:22:07.116Z,100.00
2023-05-25T03:24:35.602Z,100.00
2023-05-25T03:27:03.888Z,100.00
2023-05-25T03:29:32.171Z,100.00
2023-05-25T03:32:00.712Z,100.00
2023-05-25T03:34:30.745Z,100.00
2023-05-25T03:36:59.135Z,100.00
2023-05-25T03:39:27.487Z,100.00
2023-05-25T03:41:56.176Z,100.00
2023-05-25T03:44:24.373Z,100.00
2023-05-25T03:46:52.744Z,100.00
2023-05-25T03:49:21.096Z,100.00
2023-05-25T03:51:50.750Z,100.00
2023-05-25T03:54:19.107Z,100.00
2023-05-25T03:56:47.385Z,100.00
2023-05-25T03:59:15.776Z,100.00
2023-05-25T04:01:44.091Z,100.00
2023-05-25T04:04:12.604Z,100.00
2023-05-25T04:06:42.816Z,100.00
2023-05-25T04:09:12.534Z,100.00
2023-05-25T04:11:40.784Z,100.00
2023-05-25T04:14:09.078Z,100.00
2023-05-25T04:16:37.557Z,100.00
2023-05-25T04:19:06.233Z,100.00
2023-05-25T04:21:34.521Z,100.00
2023-05-25T04:24:02.849Z,100.00
2023-05-25T04:26:32.898Z,100.00
2023-05-25T04:29:02.012Z,100.00
2023-05-25T04:31:30.451Z,100.00
2023-05-25T04:33:59.237Z,100.00
2023-05-25T04:36:27.964Z,100.00
2023-05-25T04:38:56.296Z,100.00
2023-05-25T04:41:25.949Z,100.00
2023-05-25T04:44:06.918Z,100.00
2023-05-25T04:46:37.831Z,100.00
2023-05-25T04:49:06.209Z,99.95
2023-05-25T04:51:34.548Z,98.75
2023-05-25T04:54:02.803Z,94.41
2023-05-25T04:56:31.284Z,92.02
2023-05-25T04:59:01.099Z,95.41
2023-05-25T05:01:29.724Z,98.76
2023-05-25T05:03:58.400Z,95.08
2023-05-25T05:06:26.770Z,92.92
2023-05-25T05:08:55.047Z,89.23
2023-05-25T05:11:23.767Z,85.88
2023-05-25T05:13:52.120Z,84.74
2023-05-25T05:16:21.882Z,83.18
2023-05-25T05:18:50.306Z,89.22
2023-05-25T05:21:19.071Z,90.25
2023-05-25T05:23:48.257Z,92.31
2023-05-25T05:26:17.718Z,89.70
2023-05-25T05:28:46.061Z,91.18
2023-05-25T05:31:14.608Z,97.94
2023-05-25T05:33:44.373Z,92.94
2023-05-25T05:36:12.654Z,87.29
2023-05-25T05:38:41.713Z,90.36
2023-05-25T05:41:14.176Z,86.52
2023-05-25T05:43:43.871Z,86.72
2023-05-25T05:46:12.227Z,92.13
2023-05-25T05:48:40.614Z,82.35
2023-05-25T05:51:10.299Z,84.80
2023-05-25T05:53:39.588Z,83.82
2023-05-25T05:56:08.051Z,95.02
2023-05-25T05:58:36.399Z,85.19
2023-05-25T06:01:04.719Z,86.54
2023-05-25T06:03:33.085Z,80.58
2023-05-25T06:06:01.953Z,81.27
2023-05-25T06:08:31.681Z,73.91
2023-05-25T06:11:00.045Z,74.44
2023-05-25T06:13:28.428Z,76.40
2023-05-25T06:15:56.785Z,71.98
2023-05-25T06:18:34.308Z,77.32
2023-05-25T06:21:02.815Z,69.35
2023-05-25T06:23:32.557Z,73.21
2023-05-25T06:26:05.307Z,67.87
2023-05-25T06:28:33.920Z,66.64
2023-05-25T06:31:02.210Z,65.32
2023-05-25T06:33:30.487Z,63.48
2023-05-25T06:36:00.784Z,63.50
2023-05-25T06:38:29.775Z,65.57
2023-05-25T06:41:03.299Z,65.65
2023-05-25T06:43:32.358Z,62.04
2023-05-25T06:46:00.853Z,60.42
2023-05-25T06:48:29.193Z,59.44
2023-05-25T06:50:57.534Z,61.32
2023-05-25T06:53:25.811Z,60.03
2023-05-25T06:55:54.156Z,60.30
2023-05-25T06:58:23.830Z,59.79
2023-05-25T07:00:52.413Z,58.55
2023-05-25T07:03:21.118Z,58.50
2023-05-25T07:05:49.551Z,58.57
2023-05-25T07:08:17.886Z,58.83
2023-05-25T07:10:47.117Z,56.90
2023-05-25T07:13:16.949Z,57.91
2023-05-25T07:15:47.578Z,58.04
2023-05-25T07:18:16.389Z,57.71
2023-05-25T07:20:44.692Z,57.93
2023-05-25T07:23:13.295Z,58.26
2023-05-25T07:25:42.961Z,55.62
2023-05-25T07:28:11.454Z,56.18
2023-05-25T07:30:41.668Z,57.61
2023-05-25T07:33:11.346Z,54.69
2023-05-25T07:35:39.722Z,56.41
2023-05-25T07:38:08.007Z,52.02
2023-05-25T07:40:36.849Z,51.17
2023-05-25T07:43:08.155Z,53.65
2023-05-25T07:45:36.758Z,52.42
2023-05-25T07:48:07.224Z,51.28
2023-05-25T07:50:37.057Z,51.12
2023-05-25T07:53:05.323Z,50.82
2023-05-25T07:55:33.657Z,51.48
2023-05-25T07:58:01.949Z,52.05
2023-05-25T08:00:30.301Z,51.88
2023-05-25T08:02:58.638Z,51.83
2023-05-25T08:05:27.078Z,50.17
2023-05-25T08:07:56.852Z,50.38
2023-05-25T08:10:31.494Z,51.67
2023-05-25T08:12:59.996Z,50.12
2023-05-25T08:15:28.466Z,51.26
2023-05-25T08:17:57.204Z,51.54
2023-05-25T08:20:26.267Z,49.55
2023-05-25T08:22:54.910Z,49.73
2023-05-25T08:25:24.709Z,49.40
2023-05-25T08:27:53.178Z,48.92
2023-05-25T08:30:21.550Z,48.40
2023-05-25T08:32:49.925Z,49.11
2023-05-25T08:35:18.863Z,46.29
2023-05-25T08:37:47.164Z,47.75
2023-05-25T08:40:18.352Z,46.33
2023-05-25T08:42:48.116Z,47.49
2023-05-25T08:45:30.563Z,44.99
2023-05-25T08:48:03.257Z,43.12
2023-05-25T08:50:33.824Z,44.36
2023-05-25T08:53:06.516Z,46.33
2023-05-25T08:55:39.106Z,44.09
2023-05-25T08:58:16.409Z,43.78
2023-05-25T09:00:50.856Z,42.94
2023-05-25T09:03:19.361Z,42.23
2023-05-25T09:05:48.597Z,42.24
2023-05-25T09:08:18.275Z,41.97
2023-05-25T09:10:46.716Z,42.02
2023-05-25T09:15:48.491Z,41.91
2023-05-25T09:18:16.893Z,41.05
2023-05-25T09:20:46.930Z,41.56
2023-05-25T09:23:16.567Z,41.72
2023-05-25T09:25:45.801Z,40.83
2023-05-25T09:30:47.460Z,43.15
2023-05-25T09:33:18.143Z,45.78
2023-05-25T09:35:47.138Z,44.29
2023-05-25T09:38:17.293Z,43.42
2023-05-25T09:40:46.467Z,42.49
2023-05-25T09:43:28.274Z,42.36
2023-05-25T09:46:01.150Z,42.38
2023-05-25T09:48:30.548Z,41.18
2023-05-25T09:50:59.179Z,40.79
2023-05-25T09:53:28.310Z,40.91
2023-05-25T09:55:57.852Z,40.22
2023-05-25T09:58:28.293Z,39.86
2023-05-25T10:00:56.668Z,38.54
2023-05-25T10:03:25.010Z,36.44
2023-05-25T10:05:54.777Z,36.82
2023-05-25T10:08:28.604Z,37.66
2023-05-25T10:10:57.319Z,37.61
2023-05-25T10:13:30.719Z,36.82
2023-05-25T10:16:00.506Z,35.60
2023-05-25T10:18:34.124Z,33.24
2023-05-25T10:21:05.522Z,33.92
2023-05-25T10:23:40.410Z,34.49
2023-05-25T10:26:11.091Z,36.39
2023-05-25T10:28:43.196Z,36.56
2023-05-25T10:31:12.184Z,38.89
2023-05-25T10:33:40.913Z,36.36
2023-05-25T10:36:13.723Z,37.34
2023-05-25T10:38:44.849Z,37.89
2023-05-25T10:41:13.355Z,36.45
2023-05-25T10:43:44.418Z,37.16
2023-05-25T10:46:15.192Z,36.26
2023-05-25T10:48:48.679Z,35.42
2023-05-25T10:51:16.998Z,35.82
2023-05-25T10:53:46.572Z,35.20
2023-05-25T10:56:15.651Z,36.17
2023-05-25T10:58:47.614Z,34.51
2023-05-25T11:01:17.095Z,33.81
2023-05-25T11:03:59.006Z,32.77
2023-05-25T11:07:00.711Z,32.66
2023-05-25T11:09:31.636Z,34.72
2023-05-25T11:12:04.135Z,34.85
2023-05-25T11:14:37.290Z,35.88
2023-05-25T11:17:08.419Z,35.82
2023-05-25T11:19:50.614Z,37.25
2023-05-25T11:22:21.429Z,38.68
2023-05-25T11:24:50.422Z,39.88
2023-05-25T11:27:23.934Z,39.20
2023-05-25T11:29:54.725Z,41.13
2023-05-25T11:32:23.177Z,43.08
2023-05-25T11:34:54.175Z,41.49
2023-05-25T11:37:24.976Z,42.28
2023-05-25T11:39:54.153Z,43.76
2023-05-25T11:42:24.268Z,41.47
2023-05-25T11:44:54.020Z,39.73
2023-05-25T11:47:25.481Z,39.94
2023-05-25T11:49:57.052Z,38.93
2023-05-25T11:52:25.398Z,39.73
2023-05-25T11:54:54.237Z,41.69
2023-05-25T11:57:25.393Z,41.54
2023-05-25T11:59:57.469Z,41.48
2023-05-25T12:02:26.249Z,40.72
2023-05-25T12:04:56.361Z,40.71
2023-05-25T12:07:26.444Z,40.22
2023-05-25T12:10:06.336Z,41.24
2023-05-25T12:12:41.416Z,44.31
2023-05-25T12:15:13.163Z,46.86
2023-05-25T12:17:43.755Z,50.70
2023-05-25T12:20:13.865Z,51.09
2023-05-25T12:22:43.716Z,55.83
2023-05-25T12:25:13.824Z,57.87
2023-05-25T12:27:42.800Z,59.83
2023-05-25T12:30:13.397Z,62.01
2023-05-25T12:33:04.138Z,63.24
2023-05-25T12:35:46.824Z,64.60
2023-05-25T12:38:16.783Z,67.27
2023-05-25T12:40:45.591Z,77.15
2023-05-25T12:43:14.447Z,76.15
2023-05-25T12:45:44.581Z,79.73
2023-05-25T12:48:13.045Z,82.12
2023-05-25T12:50:58.349Z,86.08
2023-05-25T12:53:27.403Z,91.73
2023-05-25T12:56:02.661Z,99.90
2023-05-25T12:58:30.967Z,100.00
2023-05-25T13:01:00.930Z,100.00
2023-05-25T13:03:29.350Z,100.00
2023-05-25T13:06:02.534Z,100.00
2023-05-25T13:08:31.204Z,100.00
2023-05-25T13:11:00.252Z,100.00
2023-05-25T13:13:28.524Z,100.00
2023-05-25T13:15:58.447Z,100.00
2023-05-25T13:18:28.241Z,100.00
2023-05-25T13:20:57.305Z,100.00
2023-05-25T13:23:25.929Z,100.00
2023-05-25T13:25:54.263Z,100.00
2023-05-25T13:28:22.486Z,100.00
2023-05-25T13:30:50.839Z,100.00
2023-05-25T13:33:19.175Z,100.00
2023-05-25T13:35:58.593Z,100.00
2023-05-25T13:38:27.701Z,100.00
2023-05-25T13:40:56.010Z,100.00
2023-05-25T13:43:24.427Z,100.00
2023-05-25T13:45:52.838Z,100.00
2023-05-25T13:48:21.416Z,100.00
2023-05-25T13:50:51.143Z,100.00
2023-05-25T13:53:19.394Z,100.00
2023-05-25T13:55:47.941Z,100.00
2023-05-25T13:58:16.341Z,100.00
2023-05-25T14:00:44.965Z,100.00
2023-05-25T14:03:14.222Z,100.00
2023-05-25T14:05:42.748Z,100.00
2023-05-25T14:08:12.903Z,100.00
2023-05-25T14:10:43.542Z,100.00
2023-05-25T14:13:12.025Z,100.00
2023-05-25T14:15:40.328Z,100.00
2023-05-25T14:18:08.748Z,100.00
2023-05-25T14:20:38.746Z,100.00
2023-05-25T14:23:07.066Z,100.00
2023-05-25T14:25:36.706Z,100.00
2023-05-25T14:28:05.048Z,100.00
2023-05-25T14:30:33.387Z,100.00
2023-05-25T14:33:01.773Z,100.00
2023-05-25T14:35:30.176Z,100.00
2023-05-25T14:37:58.427Z,100.00
2023-05-25T14:40:26.740Z,100.00
2023-05-25T14:42:56.754Z,100.00
2023-05-25T14:45:25.082Z,100.00
2023-05-25T14:48:04.000Z,100.00
2023-05-25T14:50:42.145Z,100.00
2023-05-25T14:53:10.444Z,100.00
2023-05-25T14:55:38.749Z,100.00
2023-05-25T14:58:08.577Z,100.00
2023-05-25T15:00:36.949Z,100.00
2023-05-25T15:03:06.040Z,100.00
2023-05-25T15:05:34.426Z,100.00
2023-05-25T15:08:02.800Z,100.00
2023-05-25T15:10:31.204Z,100.00
2023-05-25T15:12:59.509Z,100.00
2023-05-25T15:15:29.201Z,100.00
2023-05-25T15:17:57.573Z,100.00
2023-05-25T15:20:25.893Z,100.00
2023-05-25T15:22:54.242Z,100.00
2023-05-25T15:25:34.900Z,100.00
2023-05-25T15:28:03.978Z,100.00
2023-05-25T15:30:53.465Z,100.00
2023-05-25T15:33:24.104Z,100.00
2023-05-25T15:35:54.081Z,100.00
2023-05-25T15:38:22.395Z,100.00
2023-05-25T15:40:50.743Z,100.00
2023-05-25T15:43:19.054Z,100.00
2023-05-25T15:45:48.836Z,100.00
2023-05-25T15:48:17.275Z,100.00
2023-05-25T15:50:45.736Z,100.00
2023-05-25T15:53:14.058Z,100.00
2023-05-25T15:55:42.493Z,100.00
2023-05-25T15:58:11.519Z,100.00
2023-05-25T16:00:39.785Z,100.00
2023-05-25T16:03:09.619Z,100.00
2023-05-25T16:05:37.994Z,100.00
2023-05-25T16:08:06.311Z,100.00
2023-05-25T16:10:34.656Z,100.00
2023-05-25T16:13:02.947Z,100.00
2023-05-25T16:15:31.270Z,100.00
2023-05-25T16:18:00.640Z,100.00
2023-05-25T16:20:30.370Z,100.00
2023-05-25T16:22:58.752Z,100.00
2023-05-25T16:25:27.112Z,100.00
2023-05-25T16:27:55.386Z,100.00
2023-05-25T16:30:23.858Z,100.00
2023-05-25T16:32:52.209Z,100.00
2023-05-25T16:35:20.903Z,100.00
2023-05-25T16:37:50.669Z,100.00
2023-05-25T16:40:18.996Z,100.00
2023-05-25T16:42:47.320Z,100.00
2023-05-25T16:45:15.946Z,100.00
2023-05-25T16:47:44.317Z,100.00
2023-05-25T16:50:12.881Z,100.00
2023-05-25T16:52:41.872Z,100.00
2023-05-25T16:55:11.701Z,100.00
2023-05-25T16:57:40.018Z,100.00
2023-05-25T17:00:09.667Z,100.00
2023-05-25T17:02:38.056Z,100.00
2023-05-25T17:05:07.157Z,100.00
2023-05-25T17:07:35.801Z,100.00
2023-05-25T17:10:04.225Z,100.00
2023-05-25T17:12:34.034Z,100.00
2023-05-25T17:15:02.420Z,100.00
2023-05-25T17:17:30.797Z,100.00
2023-05-25T17:19:59.297Z,100.00
2023-05-25T17:22:27.739Z,100.00
2023-05-25T17:24:56.111Z,100.00
2023-05-25T17:27:24.509Z,100.00
2023-05-25T17:29:54.273Z,100.00
2023-05-25T17:32:22.502Z,100.00
2023-05-25T17:34:50.836Z,100.00
2023-05-25T17:37:20.932Z,100.00
2023-05-25T17:39:49.518Z,100.00
2023-05-25T17:42:17.965Z,100.00
2023-05-25T17:44:46.266Z,100.00
2023-05-25T17:47:15.993Z,100.00
2023-05-25T17:49:44.426Z,100.00
2023-05-25T17:52:12.838Z,100.00
2023-05-25T17:54:41.117Z,100.00
2023-05-25T17:57:09.751Z,100.00
2023-05-25T17:59:38.042Z,100.00
2023-05-25T18:02:06.821Z,100.00
2023-05-25T18:04:36.582Z,100.00
2023-05-25T18:07:04.994Z,100.00
2023-05-25T18:09:33.414Z,100.00
2023-05-25T18:12:01.783Z,100.00
2023-05-25T18:14:35.317Z,100.00
2023-05-25T18:17:03.697Z,100.00
2023-05-25T18:19:32.102Z,100.00
2023-05-25T18:22:01.852Z,100.00
2023-05-25T18:24:30.193Z,100.00
2023-05-25T18:26:59.814Z,100.00
2023-05-25T18:29:29.111Z,100.00
2023-05-25T18:31:57.375Z,100.00
2023-05-25T18:34:25.759Z,100.00
2023-05-25T18:36:54.112Z,100.00
2023-05-25T18:39:23.835Z,100.00
2023-05-25T18:41:52.146Z,100.00
2023-05-25T18:44:20.740Z,100.00
2023-05-25T18:46:51.907Z,100.00
2023-05-25T18:49:20.274Z,100.00
2023-05-25T18:51:48.580Z,100.00
2023-05-25T18:54:16.965Z,100.00
2023-05-25T18:56:46.711Z,100.00
2023-05-25T18:59:15.123Z,100.00
2023-05-25T19:01:43.461Z,100.00
2023-05-25T19:04:11.834Z,100.00
2023-05-25T19:06:40.211Z,100.00
2023-05-25T19:09:08.482Z,100.00
2023-05-25T19:11:36.805Z,100.00
2023-05-25T19:14:06.558Z,100.00
2023-05-25T19:16:34.968Z,100.00
2023-05-25T19:19:03.286Z,100.00
2023-05-25T19:21:31.685Z,100.00
2023-05-25T19:24:00.055Z,100.00
2023-05-25T19:26:28.297Z,100.00
2023-05-25T19:28:57.476Z,100.00
2023-05-25T19:31:27.226Z,100.00
2023-05-25T19:33:55.588Z,100.00
2023-05-25T19:36:23.960Z,100.00
2023-05-25T19:38:52.255Z,100.00
2023-05-25T19:41:20.561Z,100.00
2023-05-25T19:43:48.982Z,100.00
2023-05-25T19:46:17.349Z,100.00
2023-05-25T19:48:47.103Z,100.00
2023-05-25T19:51:15.416Z,100.00
2023-05-25T19:53:43.778Z,100.00
2023-05-25T19:56:12.028Z,100.00
2023-05-25T19:58:40.381Z,100.00
2023-05-25T20:01:08.864Z,100.00
2023-05-25T20:03:37.350Z,100.00
2023-05-25T20:06:07.522Z,100.00
2023-05-25T20:08:36.972Z,100.00
2023-05-25T20:11:05.474Z,100.00
2023-05-25T20:13:33.903Z,100.00
2023-05-25T20:16:02.366Z,100.00
2023-05-25T20:18:30.680Z,100.00
2023-05-25T20:20:59.006Z,100.00
2023-05-25T20:23:28.689Z,100.00
2023-05-25T20:25:57.027Z,100.00
2023-05-25T20:28:25.360Z,100.00
2023-05-25T20:30:53.739Z,100.00
2023-05-25T20:33:22.133Z,100.00
2023-05-25T20:35:50.350Z,100.00
2023-05-25T20:38:18.669Z,100.00
2023-05-25T20:40:48.456Z,100.00
2023-05-25T20:43:16.730Z,100.00
2023-05-25T20:45:45.187Z,100.00
2023-05-25T20:48:13.742Z,100.00
2023-05-25T20:50:42.004Z,100.00
2023-05-25T20:53:10.902Z,100.00
2023-05-25T20:55:39.351Z,100.00
2023-05-25T20:58:09.077Z,100.00
2023-05-25T21:00:37.486Z,100.00
2023-05-25T21:03:08.596Z,100.00
2023-05-25T21:05:38.234Z,100.00
2023-05-25T21:08:06.480Z,100.00
2023-05-25T21:10:34.962Z,100.00
2023-05-25T21:13:03.259Z,100.00
2023-05-25T21:15:32.994Z,100.00
2023-05-25T21:18:03.560Z,100.00
2023-05-25T21:20:32.025Z,100.00
2023-05-25T21:23:00.860Z,100.00
2023-05-25T21:25:29.243Z,100.00
2023-05-25T21:27:57.547Z,100.00
2023-05-25T21:30:25.784Z,100.00
2023-05-25T21:32:55.556Z,100.00
2023-05-25T21:35:23.911Z,100.00
2023-05-25T21:37:52.181Z,100.00
2023-05-25T21:40:20.543Z,100.00
2023-05-25T21:42:51.118Z,100.00
2023-05-25T21:45:19.742Z,100.00
2023-05-25T21:47:48.254Z,100.00
2023-05-25T21:50:18.175Z,100.00
2023-05-25T21:52:46.539Z,100.00
2023-05-25T21:55:14.823Z,100.00
2023-05-25T21:57:43.138Z,100.00
2023-05-25T22:00:12.881Z,100.00
2023-05-25T22:02:41.621Z,100.00
2023-05-25T22:05:10.074Z,100.00
2023-05-25T22:07:39.758Z,100.00
2023-05-25T22:10:09.338Z,100.00
2023-05-25T22:12:37.579Z,100.00
2023-05-25T22:15:07.171Z,100.00
2023-05-25T22:17:35.524Z,100.00
2023-05-25T22:20:07.841Z,100.00
2023-05-25T22:22:37.477Z,100.00
2023-05-25T22:25:07.910Z,100.00
2023-05-25T22:27:36.313Z,100.00
2023-05-25T22:30:04.963Z,100.00
2023-05-25T22:32:33.261Z,100.00
2023-05-25T22:35:01.638Z,100.00
2023-05-25T22:37:30.002Z,100.00
2023-05-25T22:39:58.246Z,100.00
2023-05-25T22:42:27.982Z,100.00
2023-05-25T22:44:56.259Z,100.00
2023-05-25T22:47:24.593Z,100.00
2023-05-25T22:49:53.066Z,100.00
2023-05-25T22:52:21.402Z,100.00
2023-05-25T22:54:49.636Z,100.00
2023-05-25T22:57:18.013Z,100.00
2023-05-25T22:59:47.686Z,100.00
2023-05-25T23:02:15.937Z,100.00
2023-05-25T23:04:44.411Z,100.00
2023-05-25T23:07:12.910Z,100.00
2023-05-25T23:09:41.155Z,100.00
2023-05-25T23:12:09.664Z,100.00
2023-05-25T23:14:37.896Z,100.00
2023-05-25T23:17:07.624Z,100.00
2023-05-25T23:19:35.922Z,100.00
2023-05-25T23:22:04.200Z,100.00
2023-05-25T23:24:32.572Z,100.00
2023-05-25T23:27:01.033Z,100.00
2023-05-25T23:29:29.524Z,100.00
2023-05-25T23:31:57.932Z,100.00
2023-05-25T23:34:27.700Z,100.00
2023-05-25T23:36:58.272Z,100.00
2023-05-25T23:39:26.691Z,100.00
2023-05-25T23:41:55.013Z,100.00
2023-05-25T23:44:23.296Z,100.00
2023-05-25T23:46:52.129Z,100.00
2023-05-25T23:49:20.529Z,100.00
2023-05-25T23:51:50.318Z,100.00
2023-05-25T23:54:18.612Z,100.00
2023-05-25T23:56:46.943Z,100.00
2023-05-25T23:59:15.594Z,100.00
